Clarion, IA (50525)

11:21 PM CDT on August 30, 2016 (GMT -0500)
Northern Webster City | | Change Station

Elev 1076 ft 42.48 °N, 93.82 °W | Updated 55 seconds ago

Clear
Clear
65.1 °F
Feels Like 65.1 °F
N
0.0
Wind Variable Wind from NNE

Today
High -- | Low -- °F
--% Chance of Precip.
Yesterday
High -- | Low -- °F
Precip. -- in
Pressure 30.18 in
Visibility 10.0 miles
Clouds Clear
Dew Point 62 °F
Humidity 88%
Rainfall 0.45 in
Snow Depth Not available.
6:38 AM 7:51 PM
Waning Crescent, 2% visible
METAR KFOD 310415Z AUTO 01003KT 10SM CLR 18/17 A3018 RMK AO1
Pressure 30.18 in
Visibility 10.0 miles
Clouds Clear
Dew Point 62 °F
Humidity 88%
Rainfall 0.45 in
Snow Depth Not available.
6:38 AM 7:51 PM
Waning Crescent, 2% visible
METAR KFOD 310415Z AUTO 01003KT 10SM CLR 18/17 A3018 RMK AO1

10-Day Weather Forecast

Almanac

Astronomy

Aug. 30, 2016 Rise Set
Actual Time
Civil Twilight
Nautical Twilight
Astronomical Twilight
Moon
Length of Visible Light
Length of Day
Tomorrow will be .
, % of the Moon is Illuminated

Today's Extremes

State Highs State Lows

Community

WunderPhotos

Upload Photos

1,936,035 photos uploaded!

WunderBlog® & News

Nearby

Air Quality

  Air Quality AQ Index Pollutant
Not available.

Snow Depth

Station Depth Elevation

Earthquake Activity

City Distance Mag. Time & Date
Minimum magnitude displayed is 2.5.

Coastal Water Temperatures

Place Temperature

Stations

Nearby Weather Stations

Station Location Temp. Windchill Dew Point Humidity Wind Precip. Elev Updated Type
                   

Watches & Warnings

There are currently no watches in effect.